createdAt,value
2019-04-14T00:02:29.348Z,5.30
2019-04-14T00:05:00.280Z,5.30
2019-04-14T00:07:29.887Z,5.30
2019-04-14T00:10:00.634Z,5.30
2019-04-14T00:12:29.873Z,5.20
2019-04-14T00:14:59.842Z,5.30
2019-04-14T00:17:30.356Z,5.30
2019-04-14T00:20:00.994Z,5.30
2019-04-14T00:22:31.000Z,5.30
2019-04-14T00:25:02.404Z,5.30
2019-04-14T00:30:49.118Z,5.20
2019-04-14T00:33:19.822Z,5.20
2019-04-14T00:36:11.301Z,5.10
2019-04-14T00:38:43.450Z,5.20
2019-04-14T00:41:36.222Z,5.10
2019-04-14T00:44:05.766Z,5.10
2019-04-14T00:47:00.606Z,5.10
2019-04-14T00:49:31.074Z,5.10
2019-04-14T00:52:01.451Z,5.10
2019-04-14T00:54:32.509Z,5.10
2019-04-14T00:57:03.089Z,5.10
2019-04-14T00:59:33.374Z,5.10
2019-04-14T01:02:03.425Z,5.00
2019-04-14T01:04:33.744Z,5.00
2019-04-14T01:07:04.290Z,5.10
2019-04-14T01:09:34.723Z,5.10
2019-04-14T01:12:04.101Z,5.00
2019-04-14T01:14:34.255Z,5.10
2019-04-14T01:17:04.700Z,5.10
2019-04-14T01:19:35.130Z,5.10
2019-04-14T01:22:05.359Z,5.00
2019-04-14T01:24:34.589Z,5.00
2019-04-14T01:27:04.005Z,5.10
2019-04-14T01:29:34.157Z,5.10
2019-04-14T01:32:04.555Z,5.10
2019-04-14T01:34:34.750Z,5.10
2019-04-14T01:37:05.170Z,5.10
2019-04-14T01:39:35.050Z,5.10
2019-04-14T01:42:05.350Z,5.10
2019-04-14T01:44:35.249Z,5.20
2019-04-14T01:47:05.258Z,5.10
2019-04-14T01:49:35.457Z,5.20
2019-04-14T01:52:36.279Z,5.20
2019-04-14T01:55:35.019Z,5.30
2019-04-14T01:58:27.238Z,5.30
2019-04-14T02:01:14.842Z,5.30
2019-04-14T02:03:45.478Z,5.20
2019-04-14T02:06:15.762Z,5.20
2019-04-14T02:08:45.848Z,5.20
2019-04-14T02:11:15.864Z,5.20
2019-04-14T02:13:46.357Z,5.10
2019-04-14T02:16:25.971Z,5.10
2019-04-14T02:18:47.118Z,5.10
2019-04-14T02:21:17.504Z,5.10
2019-04-14T02:23:47.553Z,5.20
2019-04-14T02:26:17.678Z,5.10
2019-04-14T02:28:48.214Z,5.20
2019-04-14T02:31:41.718Z,5.10
2019-04-14T02:34:21.662Z,5.20
2019-04-14T02:36:46.257Z,5.20
2019-04-14T02:39:21.088Z,5.10
2019-04-14T02:44:25.691Z,5.10
2019-04-14T02:46:58.160Z,5.20
2019-04-14T02:49:18.742Z,5.10
2019-04-14T02:51:50.062Z,5.20
2019-04-14T02:54:25.567Z,5.20
2019-04-14T02:56:58.370Z,5.20
2019-04-14T02:59:22.676Z,5.30
2019-04-14T03:02:09.987Z,5.30
2019-04-14T03:04:25.499Z,5.20
2019-04-14T03:06:56.365Z,5.20
2019-04-14T03:09:38.137Z,5.30
2019-04-14T03:14:32.413Z,5.10
2019-04-14T03:20:07.148Z,5.00
2019-04-14T03:22:37.261Z,5.00
2019-04-14T03:25:16.738Z,5.00
2019-04-14T03:27:58.684Z,5.00
2019-04-14T03:36:20.267Z,4.80
2019-04-14T03:38:24.478Z,4.80
2019-04-14T03:40:48.962Z,4.90
2019-04-14T03:46:07.321Z,5.00
2019-04-14T03:48:45.115Z,5.00
2019-04-14T03:50:56.652Z,5.20
2019-04-14T03:53:37.729Z,4.90
2019-04-14T03:56:14.269Z,4.70
2019-04-14T03:58:42.109Z,4.70
2019-04-14T04:01:12.605Z,4.70
2019-04-14T04:03:41.994Z,4.60
2019-04-14T04:06:11.816Z,4.60
2019-04-14T04:08:42.024Z,4.60
2019-04-14T04:11:12.553Z,4.40
2019-04-14T04:13:41.883Z,4.50
2019-04-14T04:16:31.142Z,4.50
2019-04-14T04:19:12.978Z,4.50
2019-04-14T04:21:59.611Z,4.50
2019-04-14T04:24:43.321Z,4.50
2019-04-14T04:27:22.115Z,4.50
2019-04-14T04:30:01.601Z,4.60
2019-04-14T04:33:00.055Z,4.50
2019-04-14T04:35:37.086Z,4.60
2019-04-14T04:38:13.835Z,4.60
2019-04-14T04:40:43.986Z,4.60
2019-04-14T04:43:13.249Z,4.60
2019-04-14T04:45:43.114Z,4.60
2019-04-14T04:48:13.165Z,4.40
2019-04-14T04:50:43.156Z,4.50
2019-04-14T04:53:13.652Z,4.60
2019-04-14T04:55:43.879Z,4.60
2019-04-14T04:58:13.213Z,4.40
2019-04-14T05:00:42.407Z,4.40
2019-04-14T05:03:12.443Z,4.40
2019-04-14T05:06:09.604Z,4.40
2019-04-14T05:08:41.670Z,4.20
2019-04-14T05:11:29.416Z,4.10
2019-04-14T05:14:00.137Z,4.00
2019-04-14T05:16:30.251Z,3.90
2019-04-14T05:19:12.313Z,4.10
2019-04-14T05:21:30.410Z,3.90
2019-04-14T05:24:00.568Z,3.70
2019-04-14T05:26:30.821Z,3.80
2019-04-14T05:29:01.317Z,3.90
2019-04-14T05:31:31.783Z,3.90
2019-04-14T05:34:02.249Z,3.90
2019-04-14T05:36:38.849Z,3.90
2019-04-14T05:39:11.387Z,3.80
2019-04-14T05:41:55.898Z,3.80
2019-04-14T05:44:12.707Z,3.70
2019-04-14T05:46:42.535Z,3.80
2019-04-14T05:49:24.505Z,3.70
2019-04-14T05:51:44.012Z,4.20
2019-04-14T05:54:14.177Z,5.50
2019-04-14T05:56:44.780Z,5.30
2019-04-14T05:59:21.995Z,4.90
2019-04-14T06:01:51.417Z,4.60
2019-04-14T06:04:22.180Z,4.30
2019-04-14T06:06:53.649Z,4.20
2019-04-14T06:09:22.986Z,4.10
2019-04-14T06:11:54.618Z,4.00
2019-04-14T06:14:23.867Z,4.00
2019-04-14T06:16:53.142Z,3.90
2019-04-14T06:19:36.366Z,3.80
2019-04-14T06:21:56.635Z,3.90
2019-04-14T06:24:25.919Z,3.80
2019-04-14T06:26:57.005Z,3.70
2019-04-14T06:57:44.836Z,3.60
2019-04-14T07:00:21.634Z,3.60
2019-04-14T07:02:48.484Z,3.60
2019-04-14T07:05:18.655Z,3.60
2019-04-14T08:42:09.592Z,3.90
2019-04-14T08:45:48.845Z,4.00
2019-04-14T09:45:52.041Z,4.50
2019-04-14T09:48:34.284Z,4.50
2019-04-14T09:51:05.366Z,4.60
2019-04-14T09:53:35.022Z,4.60
2019-04-14T09:56:04.603Z,4.60
2019-04-14T09:58:34.076Z,4.60
2019-04-14T10:01:04.532Z,4.70
2019-04-14T10:03:36.189Z,4.70
2019-04-14T10:06:12.120Z,4.70
2019-04-14T10:11:47.944Z,4.80
2019-04-14T10:21:16.917Z,4.80
2019-04-14T10:24:40.135Z,4.90
2019-04-14T10:31:04.410Z,5.00
2019-04-14T10:33:37.399Z,5.00
2019-04-14T10:36:13.545Z,5.10
2019-04-14T10:39:49.497Z,5.10
2019-04-14T10:42:40.723Z,5.10
2019-04-14T10:51:30.254Z,5.20
2019-04-14T11:16:38.091Z,5.10
2019-04-14T11:19:10.019Z,5.20
2019-04-14T11:21:42.884Z,5.10
2019-04-14T11:27:59.392Z,5.20
2019-04-14T11:30:29.729Z,5.40
2019-04-14T11:36:52.798Z,5.40
2019-04-14T11:39:23.771Z,5.40
2019-04-14T11:41:56.836Z,5.50
2019-04-14T12:03:37.492Z,5.80
2019-04-14T12:06:34.171Z,5.90
2019-04-14T12:09:25.984Z,5.90
2019-04-14T12:12:05.241Z,5.90
2019-04-14T12:14:38.767Z,5.90
2019-04-14T12:17:16.118Z,5.90
2019-04-14T12:20:08.387Z,5.90
2019-04-14T12:22:37.919Z,6.00
2019-04-14T12:25:08.041Z,6.10
2019-04-14T12:27:37.533Z,6.20
2019-04-14T12:30:11.078Z,6.30
2019-04-14T12:38:22.362Z,6.50
2019-04-14T12:41:08.147Z,6.50
2019-04-14T12:52:33.345Z,6.70
2019-04-14T12:53:26.772Z,6.80
2019-04-14T12:56:13.972Z,6.90
2019-04-14T13:07:51.811Z,7.40
2019-04-14T13:10:22.171Z,7.40
2019-04-14T13:13:14.168Z,7.40
2019-04-14T13:15:53.483Z,7.40
2019-04-14T13:21:04.805Z,7.60
2019-04-14T13:23:36.486Z,7.70
2019-04-14T13:26:21.519Z,7.90
2019-04-14T14:37:40.557Z,11.60
2019-04-14T14:40:21.738Z,11.70
2019-04-14T16:46:50.086Z,10.30
2019-04-14T16:55:04.834Z,10.30
2019-04-14T16:58:01.236Z,10.30
2019-04-14T17:05:25.897Z,10.40
2019-04-14T17:07:56.105Z,10.30
2019-04-14T17:10:28.069Z,10.30
2019-04-14T17:12:59.471Z,10.20
2019-04-14T17:15:50.852Z,10.30
2019-04-14T17:19:06.168Z,10.20
2019-04-14T17:22:32.024Z,10.20
2019-04-14T17:25:04.608Z,10.20
2019-04-14T17:27:51.806Z,10.20
2019-04-14T17:30:52.203Z,10.20
2019-04-14T17:33:48.724Z,10.20
2019-04-14T17:37:02.712Z,10.30
2019-04-14T17:39:37.634Z,10.20
2019-04-14T17:42:48.064Z,10.20
2019-04-14T17:46:00.233Z,10.20
2019-04-14T18:04:21.455Z,10.10
2019-04-14T18:07:16.639Z,10.00
2019-04-14T18:10:07.049Z,10.00
2019-04-14T18:12:46.947Z,10.00
2019-04-14T18:15:35.478Z,9.90
2019-04-14T18:18:25.509Z,9.90
2019-04-14T18:20:58.935Z,9.90
2019-04-14T18:23:31.774Z,9.80
2019-04-14T18:27:29.089Z,9.80
2019-04-14T18:30:12.599Z,9.80
2019-04-14T18:33:12.152Z,9.70
2019-04-14T18:36:06.294Z,9.70
2019-04-14T18:40:13.437Z,9.60
2019-04-14T18:43:51.131Z,9.50
2019-04-14T18:46:53.485Z,9.50
2019-04-14T18:57:35.602Z,9.30
2019-04-14T19:08:22.747Z,9.20
2019-04-14T19:14:17.520Z,9.10
2019-04-14T19:17:02.258Z,9.00
2019-04-14T19:20:55.596Z,9.00
2019-04-14T19:27:14.564Z,8.90
2019-04-14T19:29:59.821Z,8.80
2019-04-14T19:37:39.087Z,8.80
2019-04-14T19:40:41.416Z,8.80
2019-04-14T19:43:51.552Z,8.80
2019-04-14T19:47:19.749Z,8.80
2019-04-14T19:49:44.622Z,8.80
2019-04-14T19:52:18.079Z,8.80
2019-04-14T20:06:33.610Z,8.70
2019-04-14T20:09:30.900Z,8.60
2019-04-14T20:12:02.567Z,8.60
2019-04-14T20:14:32.153Z,8.70
2019-04-14T20:18:21.105Z,8.60
2019-04-14T20:21:16.393Z,8.70
2019-04-14T20:24:10.070Z,8.60
2019-04-14T20:29:33.232Z,8.60
2019-04-14T20:32:31.218Z,8.60
2019-04-14T20:35:14.179Z,8.50
2019-04-14T20:37:54.541Z,8.40
2019-04-14T20:40:40.122Z,8.40
2019-04-14T20:43:10.837Z,8.30
2019-04-14T20:46:00.679Z,8.30
2019-04-14T20:48:43.891Z,8.20
2019-04-14T20:51:13.019Z,8.20
2019-04-14T20:53:42.355Z,8.20
2019-04-14T20:56:11.774Z,8.20
2019-04-14T20:58:41.911Z,8.10
2019-04-14T21:01:13.024Z,8.10
2019-04-14T21:07:13.638Z,8.00
2019-04-14T21:10:10.333Z,7.90
2019-04-14T21:12:57.865Z,7.80
2019-04-14T21:15:34.781Z,7.80
2019-04-14T21:18:30.886Z,7.70
2019-04-14T21:21:08.110Z,7.70
2019-04-14T21:23:43.426Z,7.60
2019-04-14T21:26:31.846Z,7.60
2019-04-14T21:29:20.709Z,7.60
2019-04-14T21:31:57.023Z,7.60
2019-04-14T21:34:32.609Z,7.60
2019-04-14T21:37:17.400Z,7.60
2019-04-14T21:39:50.639Z,7.60
2019-04-14T21:42:20.258Z,7.60
2019-04-14T21:44:49.522Z,7.50
2019-04-14T21:47:18.768Z,7.50
2019-04-14T21:49:48.125Z,7.40
2019-04-14T21:52:38.897Z,7.40
2019-04-14T21:55:09.484Z,7.40
2019-04-14T21:57:49.646Z,7.40
2019-04-14T22:00:41.420Z,7.40
2019-04-14T22:03:31.579Z,7.50
2019-04-14T22:06:07.717Z,7.50
2019-04-14T22:08:41.428Z,7.50
2019-04-14T22:11:14.548Z,7.40
2019-04-14T22:13:45.169Z,7.40
2019-04-14T22:16:18.232Z,7.40
2019-04-14T22:18:47.673Z,7.30
2019-04-14T22:21:17.118Z,7.30
2019-04-14T22:23:59.925Z,7.20
2019-04-14T22:26:25.919Z,7.10
2019-04-14T22:28:58.165Z,7.00
2019-04-14T22:31:29.362Z,6.90
2019-04-14T22:34:36.382Z,6.90
2019-04-14T22:37:05.623Z,6.90
2019-04-14T22:39:34.900Z,6.90
2019-04-14T22:42:04.274Z,6.80
2019-04-14T22:44:58.001Z,6.80
2019-04-14T22:47:26.661Z,6.80
2019-04-14T22:50:21.001Z,6.80
2019-04-14T22:52:53.438Z,6.70
2019-04-14T22:55:22.805Z,6.70
2019-04-14T22:57:52.216Z,6.70
2019-04-14T23:00:40.289Z,6.80
2019-04-14T23:03:27.982Z,6.70
2019-04-14T23:06:02.764Z,6.70
2019-04-14T23:08:36.622Z,6.60
2019-04-14T23:11:14.604Z,6.60
2019-04-14T23:14:07.958Z,6.50
2019-04-14T23:16:58.494Z,6.50
2019-04-14T23:19:35.709Z,6.50
2019-04-14T23:22:16.981Z,6.60
2019-04-14T23:24:47.410Z,6.60
2019-04-14T23:27:16.693Z,6.40
2019-04-14T23:29:46.003Z,6.40
2019-04-14T23:32:15.358Z,6.40
2019-04-14T23:34:44.616Z,6.40
2019-04-14T23:37:13.899Z,6.40
2019-04-14T23:39:45.730Z,6.30
2019-04-14T23:42:15.343Z,6.30
2019-04-14T23:44:44.617Z,6.30
2019-04-14T23:47:14.214Z,6.20
2019-04-14T23:49:43.458Z,6.10
2019-04-14T23:52:12.784Z,6.10
2019-04-14T23:54:42.090Z,6.10
2019-04-14T23:57:11.417Z,6.00
2019-04-14T23:59:40.639Z,5.90
